Time;durP1;ratioP1;P1;durP2;ratioP2;P2;SDS_P1;SDS_P2;PMS_P1;PMS_P2;Temp;Humidity;BMP_temperature;BMP_pressure;BME280_temperature;BME280_humidity;BME280_pressure;Samples;Min_cycle;Max_cycle;Signal;HPM_P1;HPM_P2
2023/04/12 00:01:06;;;;;;;18.33;12.32;;;11.10;96.10;;;;;;5032110;28;20028;-73
2023/04/12 00:03:33;;;;;;;23.73;14.05;;;11.00;96.20;;;;;;5031822;28;20139;-73
2023/04/12 00:06:02;;;;;;;25.88;15.90;;;11.10;96.10;;;;;;5033699;28;20127;-73
2023/04/12 00:08:31;;;;;;;26.00;14.52;;;11.20;96.10;;;;;;5034793;28;20037;-72
2023/04/12 00:11:01;;;;;;;20.48;14.00;;;11.20;95.90;;;;;;5039546;28;20111;-74
2023/04/12 00:13:28;;;;;;;20.27;13.35;;;11.20;95.90;;;;;;5033338;28;20033;-73
2023/04/12 00:15:54;;;;;;;21.05;14.00;;;11.20;95.90;;;;;;5037437;28;20053;-73
2023/04/12 00:18:23;;;;;;;26.50;14.55;;;11.30;95.70;;;;;;5036821;28;20489;-72
2023/04/12 00:20:50;;;;;;;21.15;14.23;;;11.30;95.70;;;;;;5039133;28;20032;-72
2023/04/12 00:23:17;;;;;;;22.83;14.38;;;11.30;95.70;;;;;;5038502;28;20033;-72
2023/04/12 00:25:43;;;;;;;24.83;14.25;;;11.40;95.70;;;;;;5031900;28;21006;-72
2023/04/12 00:28:09;;;;;;;23.23;14.43;;;11.40;95.50;;;;;;5032855;28;20036;-72
2023/04/12 00:30:35;;;;;;;21.65;14.68;;;11.40;95.60;;;;;;5040099;28;20049;-73
2023/04/12 00:33:00;;;;;;;24.23;14.52;;;11.40;95.60;;;;;;5036308;28;20025;-72
2023/04/12 00:35:26;;;;;;;21.20;12.43;;;11.40;95.70;;;;;;5047537;28;20082;-73
2023/04/12 00:37:52;;;;;;;20.23;12.93;;;11.50;95.80;;;;;;5034992;28;20390;-72
2023/04/12 00:40:18;;;;;;;20.63;12.25;;;11.50;96.00;;;;;;5037103;28;20098;-72
2023/04/12 00:42:43;;;;;;;21.55;12.35;;;11.60;96.20;;;;;;5031779;28;20115;-73
2023/04/12 00:45:09;;;;;;;17.67;12.40;;;11.60;96.20;;;;;;5029777;28;20036;-72
2023/04/12 00:47:36;;;;;;;19.20;13.88;;;11.60;96.30;;;;;;5030452;28;20090;-73
2023/04/12 00:50:03;;;;;;;19.23;12.77;;;11.60;96.20;;;;;;5033700;28;20494;-72
2023/04/12 00:52:33;;;;;;;17.73;12.80;;;11.50;95.90;;;;;;5040223;28;20038;-72
2023/04/12 00:55:00;;;;;;;21.17;12.75;;;11.50;96.00;;;;;;5034101;28;20029;-72
2023/04/12 00:57:26;;;;;;;21.60;13.43;;;11.50;96.00;;;;;;5035054;28;20040;-73
2023/04/12 00:59:52;;;;;;;20.27;13.85;;;11.60;95.90;;;;;;5034517;28;20033;-73
2023/04/12 01:02:18;;;;;;;21.30;13.80;;;11.60;95.90;;;;;;5031382;28;20044;-73
2023/04/12 01:04:44;;;;;;;19.98;12.98;;;11.50;96.00;;;;;;5032201;28;20065;-73
2023/04/12 01:07:14;;;;;;;19.98;12.60;;;11.40;96.50;;;;;;5039676;28;20069;-73
2023/04/12 01:10:15;;;;;;;20.05;14.05;;;11.20;97.30;;;;;;5031597;28;20176;-73
2023/04/12 01:13:08;;;;;;;21.13;12.70;;;11.30;97.20;;;;;;5007718;28;20483;-73
2023/04/12 01:15:40;;;;;;;20.58;12.73;;;11.20;97.50;;;;;;5030425;28;20041;-73
2023/04/12 01:18:13;;;;;;;19.63;12.75;;;11.30;97.10;;;;;;5031726;28;20037;-73
2023/04/12 01:20:50;;;;;;;18.40;12.35;;;11.30;97.40;;;;;;5040997;28;20076;-72
2023/04/12 01:23:43;;;;;;;22.23;13.43;;;11.30;97.20;;;;;;5029104;28;20121;-72
2023/04/12 01:26:24;;;;;;;23.35;12.75;;;11.30;97.00;;;;;;5032447;28;20149;-72
2023/04/12 01:28:53;;;;;;;19.25;12.25;;;11.30;97.30;;;;;;5031120;28;20494;-72
2023/04/12 01:31:20;;;;;;;19.50;13.85;;;11.20;97.50;;;;;;5028841;28;20048;-72
2023/04/12 01:33:48;;;;;;;18.55;12.93;;;10.90;97.40;;;;;;5043649;28;20559;-72
2023/04/12 01:36:20;;;;;;;19.42;12.48;;;10.90;97.70;;;;;;5039657;28;20044;-72
2023/04/12 01:38:47;;;;;;;21.83;14.10;;;10.90;97.90;;;;;;5036124;28;20029;-72
2023/04/12 01:41:13;;;;;;;24.75;15.80;;;10.90;97.90;;;;;;5032034;28;20035;-73
2023/04/12 01:43:46;;;;;;;25.45;14.80;;;11.10;97.20;;;;;;5030087;28;20034;-72
2023/04/12 01:46:18;;;;;;;26.92;14.93;;;11.20;96.70;;;;;;5032919;28;20036;-73
2023/04/12 01:48:55;;;;;;;31.05;16.45;;;11.30;96.70;;;;;;5043051;28;20124;-72
2023/04/12 01:51:42;;;;;;;25.45;15.60;;;11.30;96.60;;;;;;5030506;28;20042;-72
2023/04/12 01:54:10;;;;;;;24.30;16.10;;;11.20;96.60;;;;;;5043990;28;20080;-72
2023/04/12 01:56:42;;;;;;;24.83;15.95;;;11.20;96.70;;;;;;5036059;28;20501;-72
2023/04/12 01:59:09;;;;;;;23.27;15.05;;;11.30;96.60;;;;;;5038902;28;20036;-73
2023/04/12 02:01:35;;;;;;;24.27;15.82;;;11.20;96.60;;;;;;5037521;28;20117;-72
2023/04/12 02:04:03;;;;;;;25.60;16.13;;;11.30;96.60;;;;;;5036153;28;20550;-73
2023/04/12 02:06:30;;;;;;;30.35;16.65;;;11.30;96.70;;;;;;5035220;28;20123;-73
2023/04/12 02:09:01;;;;;;;21.75;14.98;;;11.30;96.70;;;;;;5030590;28;20029;-72
2023/04/12 02:11:27;;;;;;;23.95;15.65;;;11.20;96.90;;;;;;5037762;28;20059;-73
2023/04/12 02:13:53;;;;;;;25.05;16.17;;;11.10;97.00;;;;;;5037058;28;20431;-73
2023/04/12 02:16:19;;;;;;;25.25;15.85;;;11.20;97.00;;;;;;5028530;28;20048;-73
2023/04/12 02:18:46;;;;;;;30.20;15.38;;;11.20;97.20;;;;;;5033762;28;20037;-73
2023/04/12 02:21:12;;;;;;;28.70;16.40;;;11.10;97.20;;;;;;5038491;28;20028;-72
2023/04/12 02:23:37;;;;;;;23.52;14.82;;;11.10;97.20;;;;;;5033882;28;20083;-72
2023/04/12 02:26:03;;;;;;;22.63;15.93;;;11.20;97.00;;;;;;5036780;28;20022;-72
2023/04/12 02:28:29;;;;;;;24.27;16.02;;;11.20;96.90;;;;;;5036374;28;20110;-73
2023/04/12 02:30:55;;;;;;;25.55;15.57;;;11.20;97.00;;;;;;5030253;28;20053;-72
2023/04/12 02:33:24;;;;;;;22.90;14.50;;;11.30;96.90;;;;;;5035827;28;20045;-73
2023/04/12 02:35:51;;;;;;;22.00;14.00;;;11.20;97.40;;;;;;5036212;28;20091;-73
2023/04/12 02:38:16;;;;;;;23.00;14.00;;;11.10;98.00;;;;;;5040333;28;20029;-73
2023/04/12 02:40:42;;;;;;;23.42;14.30;;;11.00;98.40;;;;;;5032159;28;20060;-73
2023/04/12 02:43:08;;;;;;;27.27;14.60;;;10.80;98.40;;;;;;5030463;28;20035;-73
2023/04/12 02:45:34;;;;;;;20.45;13.77;;;10.90;98.50;;;;;;5037482;28;20122;-73
2023/04/12 02:48:00;;;;;;;21.15;13.77;;;10.90;98.40;;;;;;5034492;28;20037;-72
2023/04/12 02:50:26;;;;;;;25.13;13.77;;;11.00;98.30;;;;;;5035467;28;20405;-72
2023/04/12 02:52:51;;;;;;;20.65;14.65;;;11.00;98.30;;;;;;5037173;28;20087;-72
2023/04/12 02:55:17;;;;;;;18.73;12.98;;;11.00;98.50;;;;;;5030808;28;20030;-72
2023/04/12 02:57:46;;;;;;;20.83;13.18;;;11.00;98.50;;;;;;5027555;28;20475;-73
2023/04/12 03:00:14;;;;;;;22.60;14.38;;;11.10;98.30;;;;;;5034949;28;20486;-72
2023/04/12 03:02:40;;;;;;;23.85;14.43;;;11.10;98.30;;;;;;5029465;28;20108;-72
2023/04/12 03:05:07;;;;;;;20.85;13.02;;;11.00;98.40;;;;;;5025633;28;20140;-73
2023/04/12 03:07:34;;;;;;;25.70;14.68;;;10.90;98.50;;;;;;5024555;28;20913;-72
2023/04/12 03:10:00;;;;;;;18.85;13.38;;;10.90;98.60;;;;;;5030981;28;20041;-73
2023/04/12 03:12:26;;;;;;;19.38;14.00;;;11.00;98.50;;;;;;5023188;28;20042;-72
2023/04/12 03:14:51;;;;;;;25.30;14.60;;;11.00;98.50;;;;;;5030266;28;20044;-73
2023/04/12 03:17:17;;;;;;;21.75;14.35;;;11.00;98.40;;;;;;5028114;28;20401;-73
2023/04/12 03:19:43;;;;;;;21.95;13.80;;;11.10;98.50;;;;;;5032467;28;20025;-73
2023/04/12 03:22:08;;;;;;;20.60;13.65;;;11.10;98.50;;;;;;5020601;28;20046;-72
2023/04/12 03:24:34;;;;;;;22.23;14.95;;;11.10;98.60;;;;;;5030712;28;20127;-73
2023/04/12 03:27:04;;;;;;;21.98;14.02;;;11.00;98.40;;;;;;5026588;28;20455;-73
2023/04/12 03:29:30;;;;;;;24.95;15.48;;;11.10;98.30;;;;;;5036895;28;20035;-73
2023/04/12 03:31:58;;;;;;;21.70;14.38;;;11.20;98.20;;;;;;5039189;28;20029;-73
2023/04/12 03:34:26;;;;;;;22.42;13.48;;;11.10;98.10;;;;;;5028231;28;20018;-73
2023/04/12 03:36:52;;;;;;;24.85;14.55;;;11.10;98.30;;;;;;5031094;28;20041;-74
2023/04/12 03:39:18;;;;;;;19.98;13.00;;;11.00;98.50;;;;;;5036263;28;20023;-73
2023/04/12 03:41:44;;;;;;;20.30;13.57;;;11.00;98.80;;;;;;5031872;28;20030;-72
2023/04/12 03:44:09;;;;;;;20.52;12.23;;;10.90;98.60;;;;;;5027765;28;20406;-72
2023/04/12 03:46:35;;;;;;;23.23;14.90;;;11.00;98.90;;;;;;5039580;28;20393;-73
2023/04/12 03:49:01;;;;;;;20.52;13.52;;;10.90;99.00;;;;;;5028480;28;20509;-73
2023/04/12 03:51:29;;;;;;;20.73;12.65;;;10.90;99.30;;;;;;5031520;28;20152;-72
2023/04/12 03:53:55;;;;;;;22.00;13.77;;;10.80;99.00;;;;;;5027723;28;20036;-72
2023/04/12 03:56:20;;;;;;;26.17;14.32;;;10.80;99.20;;;;;;5031598;28;20402;-72
2023/04/12 03:58:46;;;;;;;24.60;15.30;;;10.70;99.00;;;;;;5032775;28;20044;-73
2023/04/12 04:01:12;;;;;;;23.25;15.30;;;10.70;98.80;;;;;;5026788;28;20391;-73
2023/04/12 04:03:39;;;;;;;27.90;13.95;;;10.80;99.00;;;;;;5024255;28;20057;-72
2023/04/12 04:06:06;;;;;;;23.33;14.68;;;10.90;99.00;;;;;;5029974;28;20033;-73
2023/04/12 04:08:32;;;;;;;24.33;14.75;;;10.90;99.20;;;;;;5026468;28;20490;-73
2023/04/12 04:10:58;;;;;;;23.02;13.73;;;10.90;99.20;;;;;;5030762;28;20037;-73
2023/04/12 04:13:24;;;;;;;25.58;15.77;;;11.00;99.10;;;;;;5023238;28;20522;-75
2023/04/12 04:15:58;;;;;;;22.48;14.23;;;10.90;99.40;;;;;;5025921;28;20025;-74
2023/04/12 04:18:24;;;;;;;21.75;14.20;;;10.80;99.70;;;;;;5029678;28;20542;-73
2023/04/12 04:20:49;;;;;;;22.25;14.05;;;10.80;99.50;;;;;;5025659;28;20030;-73
2023/04/12 04:23:16;;;;;;;21.38;14.18;;;10.80;99.20;;;;;;5025287;28;20033;-73
2023/04/12 04:25:42;;;;;;;20.77;14.18;;;10.90;99.30;;;;;;5023365;28;20032;-73
2023/04/12 04:28:08;;;;;;;24.60;14.73;;;10.80;99.60;;;;;;5022941;28;20048;-73
2023/04/12 04:30:37;;;;;;;21.90;14.15;;;10.70;99.60;;;;;;5024365;28;20037;-73
2023/04/12 04:33:03;;;;;;;22.40;14.45;;;10.70;99.40;;;;;;5031429;28;20033;-74
2023/04/12 04:35:31;;;;;;;21.65;13.90;;;10.70;99.80;;;;;;5029843;28;20118;-73
2023/04/12 04:37:57;;;;;;;21.95;14.05;;;10.60;99.90;;;;;;5027527;28;20025;-74
2023/04/12 04:40:23;;;;;;;23.45;14.20;;;10.60;99.90;;;;;;5026672;28;20041;-74
2023/04/12 04:42:54;;;;;;;24.35;14.82;;;10.50;99.90;;;;;;5025399;28;20036;-74
2023/04/12 04:45:25;;;;;;;26.40;15.77;;;10.70;99.70;;;;;;5029065;28;20166;-73
2023/04/12 04:47:54;;;;;;;22.50;14.43;;;10.60;99.60;;;;;;5033013;28;20103;-74
2023/04/12 04:50:23;;;;;;;21.90;14.23;;;10.60;99.80;;;;;;5023537;28;20025;-74
2023/04/12 04:52:52;;;;;;;22.65;14.77;;;10.60;99.80;;;;;;5033013;28;20128;-73
2023/04/12 04:55:20;;;;;;;25.10;14.70;;;10.80;99.80;;;;;;5027825;28;20037;-74
2023/04/12 04:57:46;;;;;;;26.20;14.27;;;10.80;99.80;;;;;;5028575;28;20033;-73
2023/04/12 05:00:12;;;;;;;22.98;15.15;;;10.80;99.50;;;;;;5029159;28;20032;-73
2023/04/12 05:02:41;;;;;;;22.70;14.38;;;10.70;99.90;;;;;;5023116;28;20361;-73
2023/04/12 05:05:14;;;;;;;33.50;15.10;;;10.70;99.90;;;;;;5030236;28;20025;-74
2023/04/12 05:07:42;;;;;;;29.27;15.23;;;10.70;99.90;;;;;;5025282;28;20082;-74
2023/04/12 05:10:09;;;;;;;27.88;15.82;;;10.60;99.90;;;;;;5029254;28;20022;-73
2023/04/12 05:12:35;;;;;;;22.30;15.35;;;10.70;99.90;;;;;;5024121;28;20052;-73
2023/04/12 05:15:01;;;;;;;22.40;14.52;;;10.80;99.80;;;;;;5028851;28;20116;-73
2023/04/12 05:17:27;;;;;;;20.58;14.27;;;10.80;99.90;;;;;;5027137;28;20032;-74
2023/04/12 05:19:54;;;;;;;26.73;17.00;;;10.90;99.90;;;;;;5027534;28;20021;-73
2023/04/12 05:22:20;;;;;;;23.20;16.25;;;10.80;99.90;;;;;;5023800;28;20043;-73
2023/04/12 05:24:50;;;;;;;24.83;14.68;;;10.50;99.90;;;;;;5028346;28;20024;-76
2023/04/12 05:27:16;;;;;;;20.83;14.45;;;10.60;99.90;;;;;;5033427;28;20044;-74
2023/04/12 05:29:46;;;;;;;22.15;15.55;;;10.70;99.90;;;;;;5023295;28;20065;-73
2023/04/12 05:32:11;;;;;;;21.63;15.32;;;10.80;99.90;;;;;;5022695;28;20065;-75
2023/04/12 05:34:37;;;;;;;27.35;16.13;;;11.00;99.90;;;;;;5024132;28;20061;-73
2023/04/12 05:37:03;;;;;;;24.42;15.57;;;11.00;99.90;;;;;;5022904;28;20140;-73
2023/04/12 05:39:29;;;;;;;25.70;16.35;;;10.90;99.90;;;;;;5029423;28;20083;-73
2023/04/12 05:41:55;;;;;;;19.98;13.55;;;10.90;99.90;;;;;;5029389;28;20029;-73
2023/04/12 05:44:21;;;;;;;21.17;15.02;;;10.90;99.90;;;;;;5028423;28;20165;-73
2023/04/12 05:46:46;;;;;;;24.52;14.25;;;11.00;99.90;;;;;;5025340;28;20386;-74
2023/04/12 05:49:12;;;;;;;24.92;15.85;;;11.00;99.90;;;;;;5033211;28;20037;-72
2023/04/12 05:51:38;;;;;;;25.60;15.65;;;11.00;99.90;;;;;;5037022;28;20036;-75
2023/04/12 05:54:06;;;;;;;22.70;15.13;;;10.90;99.90;;;;;;5024779;28;20030;-74
2023/04/12 05:56:32;;;;;;;20.67;13.85;;;11.00;99.90;;;;;;5036691;28;20041;-74
2023/04/12 05:58:58;;;;;;;25.33;16.23;;;11.00;99.90;;;;;;5029744;28;20381;-74
2023/04/12 06:01:29;;;;;;;24.98;13.88;;;11.10;99.90;;;;;;5033687;28;20033;-74
2023/04/12 06:03:56;;;;;;;20.60;14.15;;;11.10;99.90;;;;;;5031626;28;20036;-74
2023/04/12 06:06:21;;;;;;;23.75;13.45;;;11.10;99.90;;;;;;5027340;28;20780;-75
2023/04/12 06:08:47;;;;;;;22.10;14.13;;;11.20;99.90;;;;;;5032136;28;20115;-75
2023/04/12 06:11:12;;;;;;;21.73;14.15;;;11.10;99.90;;;;;;5026423;28;20076;-75
2023/04/12 06:13:38;;;;;;;21.60;13.85;;;11.00;99.90;;;;;;5037881;28;20717;-75
2023/04/12 06:16:05;;;;;;;22.85;13.82;;;11.10;99.90;;;;;;5024208;28;20032;-75
2023/04/12 06:18:31;;;;;;;19.42;14.02;;;11.10;99.90;;;;;;5032311;28;20335;-74
2023/04/12 06:20:56;;;;;;;18.63;12.20;;;11.10;99.90;;;;;;5026732;28;20065;-75
2023/04/12 06:23:22;;;;;;;18.95;13.23;;;11.00;99.90;;;;;;5028019;28;20490;-75
2023/04/12 06:25:49;;;;;;;24.83;13.80;;;11.00;99.90;;;;;;5035332;28;20021;-74
2023/04/12 06:28:15;;;;;;;20.73;13.60;;;11.00;99.90;;;;;;5032340;28;20056;-74
2023/04/12 06:30:41;;;;;;;19.55;12.88;;;11.00;99.90;;;;;;5033259;28;20041;-75
2023/04/12 06:33:07;;;;;;;19.77;13.30;;;11.00;99.90;;;;;;5038881;28;20433;-75
2023/04/12 06:35:33;;;;;;;20.48;12.15;;;11.00;99.90;;;;;;5033738;28;20029;-75
2023/04/12 06:37:58;;;;;;;21.35;13.07;;;11.00;99.90;;;;;;5029303;28;20025;-75
2023/04/12 06:40:24;;;;;;;21.00;12.57;;;11.00;99.90;;;;;;5031495;28;20060;-75
2023/04/12 06:42:50;;;;;;;19.65;12.45;;;11.20;99.90;;;;;;5034250;28;20026;-75
2023/04/12 06:45:15;;;;;;;21.08;13.88;;;11.10;99.90;;;;;;5028953;28;20029;-75
2023/04/12 06:47:41;;;;;;;24.17;13.02;;;11.20;99.90;;;;;;5029687;28;20550;-75
2023/04/12 06:50:07;;;;;;;18.60;12.57;;;11.10;99.40;;;;;;5026171;28;20163;-75
2023/04/12 06:52:33;;;;;;;18.58;11.75;;;11.00;99.20;;;;;;5027549;28;20051;-74
2023/04/12 06:54:59;;;;;;;18.45;12.18;;;11.10;99.30;;;;;;5029428;28;20025;-74
2023/04/12 06:57:24;;;;;;;21.70;11.43;;;11.20;99.30;;;;;;5026771;28;20052;-75
2023/04/12 06:59:51;;;;;;;29.67;11.90;;;11.30;98.80;;;;;;5031118;28;20042;-75
2023/04/12 07:02:17;;;;;;;21.63;12.38;;;11.30;98.50;;;;;;5032947;28;20554;-74
2023/04/12 07:04:42;;;;;;;22.48;13.27;;;11.40;99.60;;;;;;5029654;28;20029;-75
2023/04/12 07:07:09;;;;;;;19.75;11.88;;;11.50;99.80;;;;;;5035427;28;20043;-75
2023/04/12 07:09:35;;;;;;;19.05;10.95;;;11.60;99.50;;;;;;5033827;28;20045;-74
2023/04/12 07:12:01;;;;;;;18.27;11.98;;;11.50;99.80;;;;;;5028677;28;20124;-75
2023/04/12 07:14:27;;;;;;;18.60;13.15;;;11.50;99.80;;;;;;5048069;28;20732;-74
2023/04/12 07:16:53;;;;;;;21.60;12.57;;;11.40;99.90;;;;;;5041067;28;20151;-74
2023/04/12 07:19:18;;;;;;;25.23;12.98;;;11.50;99.60;;;;;;5034228;28;20154;-74
2023/04/12 07:21:44;;;;;;;17.77;10.82;;;11.60;99.50;;;;;;5039277;28;20358;-75
2023/04/12 07:24:10;;;;;;;36.25;12.00;;;11.60;99.40;;;;;;5037256;28;20362;-75
2023/04/12 07:26:36;;;;;;;17.77;10.77;;;11.60;99.20;;;;;;5032521;28;20102;-75
2023/04/12 07:29:02;;;;;;;18.05;10.27;;;11.60;99.20;;;;;;5025631;28;20183;-75
2023/04/12 07:31:30;;;;;;;14.35;9.60;;;11.60;98.80;;;;;;5030546;28;20056;-75
2023/04/12 07:33:56;;;;;;;15.60;9.57;;;11.50;98.30;;;;;;5030757;28;20191;-73
2023/04/12 07:36:22;;;;;;;14.77;9.43;;;11.50;98.50;;;;;;5031903;28;20526;-75
2023/04/12 07:38:50;;;;;;;16.13;9.32;;;11.60;98.60;;;;;;5027124;28;20029;-75
2023/04/12 07:41:17;;;;;;;17.75;8.73;;;11.50;98.10;;;;;;5040647;28;20604;-75
2023/04/12 07:43:42;;;;;;;19.50;8.15;;;11.50;98.00;;;;;;5034969;28;20044;-75
2023/04/12 07:46:08;;;;;;;19.33;9.55;;;11.50;98.00;;;;;;5025952;28;20099;-75
2023/04/12 07:48:34;;;;;;;14.68;8.65;;;11.60;97.70;;;;;;5031188;28;20045;-75
2023/04/12 07:50:59;;;;;;;12.65;8.40;;;11.60;97.80;;;;;;5031609;28;20065;-75
2023/04/12 07:53:27;;;;;;;18.50;9.50;;;11.60;97.90;;;;;;5032017;28;20572;-75
2023/04/12 07:55:54;;;;;;;15.30;8.35;;;11.60;97.70;;;;;;5030311;28;20378;-75
2023/04/12 07:58:23;;;;;;;16.23;8.20;;;11.50;97.50;;;;;;5031587;28;20044;-75
2023/04/12 08:00:50;;;;;;;14.65;8.50;;;11.40;97.80;;;;;;5026234;28;20060;-75
2023/04/12 08:03:17;;;;;;;13.43;8.02;;;11.40;98.00;;;;;;5042113;28;20029;-75
2023/04/12 08:05:43;;;;;;;15.63;8.18;;;11.50;98.40;;;;;;5027827;28;20502;-75
2023/04/12 08:08:09;;;;;;;15.80;8.15;;;11.60;98.10;;;;;;5031733;28;20041;-75
2023/04/12 08:10:38;;;;;;;14.13;8.40;;;11.60;98.00;;;;;;5036587;28;20477;-75
2023/04/12 08:13:05;;;;;;;14.00;9.68;;;11.70;97.90;;;;;;5023967;28;20091;-75
2023/04/12 08:15:31;;;;;;;13.55;9.45;;;11.60;97.00;;;;;;5024377;28;20040;-75
2023/04/12 08:17:56;;;;;;;16.60;9.07;;;11.60;98.30;;;;;;5027084;28;20025;-74
2023/04/12 08:20:22;;;;;;;14.88;9.70;;;11.60;98.20;;;;;;5045052;28;20037;-74
2023/04/12 08:22:48;;;;;;;16.23;8.35;;;11.50;98.50;;;;;;5037976;28;20059;-74
2023/04/12 08:25:14;;;;;;;17.65;10.20;;;11.60;98.90;;;;;;5036620;28;20052;-75
2023/04/12 08:27:42;;;;;;;14.40;8.70;;;11.50;98.70;;;;;;5025354;28;20496;-74
2023/04/12 08:30:09;;;;;;;14.00;9.13;;;11.50;98.30;;;;;;5022850;28;20667;-75
2023/04/12 08:32:36;;;;;;;16.20;9.82;;;11.60;98.30;;;;;;5040751;28;20621;-74
2023/04/12 08:35:02;;;;;;;14.52;9.57;;;11.70;98.50;;;;;;5037886;28;20041;-74
2023/04/12 08:37:28;;;;;;;17.52;9.10;;;11.80;98.40;;;;;;5045675;28;20089;-74
2023/04/12 08:39:54;;;;;;;13.25;9.55;;;11.80;98.30;;;;;;5026543;28;20025;-74
2023/04/12 08:42:20;;;;;;;15.40;9.32;;;11.80;98.40;;;;;;5022742;28;20029;-74
2023/04/12 08:44:46;;;;;;;14.57;9.45;;;11.80;98.20;;;;;;5022767;28;20037;-75
2023/04/12 08:47:12;;;;;;;16.73;8.95;;;11.80;98.20;;;;;;5031146;28;20885;-74
2023/04/12 08:49:37;;;;;;;21.05;8.52;;;11.70;98.00;;;;;;5022713;28;20030;-76
2023/04/12 08:52:08;;;;;;;14.52;10.05;;;11.70;97.40;;;;;;5036491;28;20041;-74
2023/04/12 08:54:34;;;;;;;13.25;8.90;;;11.60;97.40;;;;;;5027955;28;20522;-74
2023/04/12 08:57:03;;;;;;;15.75;9.05;;;11.60;97.80;;;;;;5028375;28;20037;-74
2023/04/12 08:59:30;;;;;;;15.20;9.20;;;11.60;97.80;;;;;;5030298;28;20155;-74
2023/04/12 09:01:57;;;;;;;17.55;9.07;;;11.70;97.60;;;;;;5022788;28;20479;-74
2023/04/12 09:04:25;;;;;;;14.00;9.55;;;11.70;97.40;;;;;;5024908;28;20033;-74
2023/04/12 09:06:50;;;;;;;15.73;9.00;;;11.90;97.60;;;;;;5025531;28;20086;-74
2023/04/12 09:09:17;;;;;;;14.35;9.13;;;12.10;97.80;;;;;;5025581;28;20033;-73
2023/04/12 09:11:42;;;;;;;21.67;9.65;;;12.20;97.30;;;;;;5050379;28;20182;-75
2023/04/12 09:14:25;;;;;;;16.38;10.07;;;12.20;97.70;;;;;;5043048;28;20511;-75
2023/04/12 09:16:51;;;;;;;18.33;9.95;;;12.20;97.80;;;;;;5048480;28;20037;-75
2023/04/12 09:19:33;;;;;;;15.45;10.52;;;12.20;97.70;;;;;;5045087;28;20123;-75
2023/04/12 09:21:59;;;;;;;15.48;8.80;;;12.10;97.70;;;;;;5026261;28;20036;-74
2023/04/12 09:24:24;;;;;;;22.77;10.38;;;12.10;97.10;;;;;;5027904;28;20403;-74
2023/04/12 09:27:04;;;;;;;12.73;8.45;;;12.10;97.00;;;;;;5035911;28;20032;-75
2023/04/12 09:29:31;;;;;;;12.75;8.68;;;12.00;96.80;;;;;;5044414;28;20028;-75
2023/04/12 09:32:01;;;;;;;19.50;8.77;;;12.10;97.20;;;;;;5032638;28;20045;-74
2023/04/12 09:34:28;;;;;;;15.93;9.00;;;12.00;97.30;;;;;;5044413;28;20504;-75
2023/04/12 09:36:54;;;;;;;14.05;9.38;;;12.00;97.00;;;;;;5044153;28;20059;-74
2023/04/12 09:39:30;;;;;;;12.75;8.10;;;12.10;97.10;;;;;;5045756;28;20064;-75
2023/04/12 09:42:10;;;;;;;13.27;9.63;;;12.20;96.90;;;;;;5025354;28;20033;-75
2023/04/12 09:44:36;;;;;;;16.50;9.68;;;12.40;96.80;;;;;;5026613;28;20042;-74
2023/04/12 09:47:04;;;;;;;17.00;9.15;;;12.30;96.90;;;;;;5041054;28;20033;-75
2023/04/12 09:49:43;;;;;;;17.73;9.77;;;12.30;96.80;;;;;;5043008;28;20463;-74
2023/04/12 09:52:10;;;;;;;15.90;9.70;;;12.10;96.50;;;;;;5040739;28;20041;-75
2023/04/12 09:54:45;;;;;;;15.02;8.43;;;12.10;96.70;;;;;;5037373;28;20025;-74
2023/04/12 09:57:12;;;;;;;17.52;9.40;;;12.20;97.10;;;;;;5039094;28;20037;-76
2023/04/12 09:59:42;;;;;;;15.00;10.35;;;12.10;96.20;;;;;;5034434;28;20026;-75
2023/04/12 10:02:17;;;;;;;21.10;10.55;;;12.00;96.60;;;;;;5028055;28;20057;-75
2023/04/12 10:04:43;;;;;;;;;;;12.10;96.60;;;;;;5028910;28;20037;-75
2023/04/12 10:07:09;;;;;;;20.33;10.30;;;12.10;96.40;;;;;;5023318;28;19909;-75
2023/04/12 10:09:39;;;;;;;14.45;9.43;;;12.20;96.30;;;;;;5034516;28;20455;-73
2023/04/12 10:12:06;;;;;;;15.52;9.32;;;12.30;96.30;;;;;;5028046;28;20048;-74
2023/04/12 10:14:31;;;;;;;16.75;11.05;;;12.40;96.70;;;;;;5028755;28;20025;-73
2023/04/12 10:16:59;;;;;;;18.92;10.82;;;12.50;96.30;;;;;;5043561;28;20029;-74
2023/04/12 10:19:26;;;;;;;15.13;10.05;;;12.60;96.10;;;;;;5037517;28;20079;-75
2023/04/12 10:21:52;;;;;;;15.85;10.90;;;12.60;96.20;;;;;;5027679;28;20036;-75
2023/04/12 10:24:23;;;;;;;16.38;9.73;;;12.50;95.50;;;;;;5025888;28;20017;-74
2023/04/12 10:26:50;;;;;;;17.30;10.68;;;12.50;95.60;;;;;;5030219;28;20040;-74
2023/04/12 10:29:27;;;;;;;19.67;10.63;;;12.50;96.30;;;;;;5030028;28;20398;-74
2023/04/12 10:31:54;;;;;;;19.70;10.68;;;12.50;95.80;;;;;;5026673;28;20042;-73
2023/04/12 10:34:41;;;;;;;16.65;10.68;;;12.50;96.40;;;;;;5031203;28;20506;-74
2023/04/12 10:37:07;;;;;;;18.80;9.13;;;12.60;96.70;;;;;;5029737;28;20470;-74
2023/04/12 10:39:37;;;;;;;17.13;9.40;;;12.60;96.50;;;;;;5027117;28;20047;-73
2023/04/12 10:42:19;;;;;;;14.80;8.98;;;12.60;96.90;;;;;;5036695;28;20032;-73
2023/04/12 10:44:46;;;;;;;19.42;10.38;;;12.40;96.50;;;;;;5024084;28;20026;-72
2023/04/12 10:47:11;;;;;;;17.40;10.30;;;12.40;96.60;;;;;;5024193;28;20056;-72
2023/04/12 10:49:38;;;;;;;16.80;10.10;;;12.50;96.30;;;;;;5023490;28;20502;-72
2023/04/12 10:52:04;;;;;;;17.30;10.35;;;12.60;95.90;;;;;;5035752;28;20071;-74
2023/04/12 10:54:34;;;;;;;20.55;10.30;;;12.50;95.60;;;;;;5039268;28;20405;-72
2023/04/12 10:57:00;;;;;;;17.88;10.85;;;12.50;95.70;;;;;;5041956;28;20028;-73
2023/04/12 10:59:45;;;;;;;16.50;10.38;;;12.50;95.80;;;;;;5034775;28;20378;-73
2023/04/12 11:02:12;;;;;;;16.77;9.88;;;12.30;96.00;;;;;;5020646;28;20041;-75
2023/04/12 11:04:38;;;;;;;14.85;9.75;;;12.50;96.10;;;;;;5038014;28;20025;-73
2023/04/12 11:07:10;;;;;;;19.23;11.27;;;12.60;95.80;;;;;;5026201;28;20039;-72
2023/04/12 11:09:37;;;;;;;17.48;10.50;;;12.70;95.70;;;;;;5035485;28;20143;-73
2023/04/12 11:12:03;;;;;;;15.45;10.10;;;12.80;95.80;;;;;;5021221;28;20037;-74
2023/04/12 11:14:30;;;;;;;23.17;11.45;;;12.90;95.70;;;;;;5035616;28;20579;-74
2023/04/12 11:17:05;;;;;;;15.50;10.75;;;12.90;95.20;;;;;;5024289;28;20371;-74
2023/04/12 11:19:37;;;;;;;16.85;10.48;;;12.90;95.40;;;;;;5026678;28;20036;-74
2023/04/12 11:22:07;;;;;;;16.92;9.98;;;12.90;95.40;;;;;;5027451;28;20578;-73
2023/04/12 11:24:36;;;;;;;16.83;10.02;;;12.70;95.20;;;;;;5026930;28;20033;-74
2023/04/12 11:27:03;;;;;;;15.85;10.05;;;12.70;95.50;;;;;;5029865;28;20143;-73
2023/04/12 11:29:31;;;;;;;16.05;8.88;;;12.80;95.30;;;;;;5025487;28;20029;-74
2023/04/12 11:31:57;;;;;;;17.10;10.15;;;12.80;95.10;;;;;;5029076;28;20510;-73
2023/04/12 11:34:24;;;;;;;18.80;10.15;;;13.00;95.20;;;;;;5030117;28;20113;-74
2023/04/12 11:36:53;;;;;;;14.27;9.57;;;12.80;95.10;;;;;;5027038;28;20025;-74
2023/04/12 11:39:20;;;;;;;17.20;9.52;;;12.90;95.10;;;;;;5022301;28;20091;-73
2023/04/12 11:41:47;;;;;;;17.10;9.98;;;12.90;95.60;;;;;;5032885;28;20582;-74
2023/04/12 11:44:17;;;;;;;21.77;10.82;;;12.90;95.20;;;;;;5031026;28;20091;-72
2023/04/12 11:46:47;;;;;;;23.05;10.43;;;13.00;95.20;;;;;;5031257;28;20472;-72
2023/04/12 11:49:16;;;;;;;20.77;10.23;;;13.10;95.40;;;;;;5021013;28;20499;-73
2023/04/12 11:51:43;;;;;;;24.77;10.30;;;13.10;95.40;;;;;;5031558;28;20033;-73
2023/04/12 11:54:10;;;;;;;17.35;9.90;;;13.10;95.20;;;;;;5041896;28;20497;-74
2023/04/12 11:56:36;;;;;;;15.20;9.73;;;13.20;95.50;;;;;;5040043;28;20021;-73
2023/04/12 11:59:02;;;;;;;16.42;10.18;;;13.10;95.10;;;;;;5026471;28;20037;-73
2023/04/12 12:01:28;;;;;;;18.33;9.45;;;13.10;95.10;;;;;;5026106;28;20044;-73
2023/04/12 12:03:54;;;;;;;16.33;9.80;;;13.00;95.00;;;;;;5027238;28;20026;-73
2023/04/12 12:06:22;;;;;;;20.65;9.93;;;13.10;95.50;;;;;;5027009;28;20128;-72
2023/04/12 12:08:50;;;;;;;17.42;10.45;;;13.20;96.00;;;;;;5031583;28;20025;-72
2023/04/12 12:11:20;;;;;;;17.73;10.27;;;13.20;95.70;;;;;;5026704;28;20048;-73
2023/04/12 12:13:47;;;;;;;16.60;9.85;;;13.30;95.90;;;;;;5032149;28;20132;-73
2023/04/12 12:16:13;;;;;;;21.17;11.23;;;13.20;95.10;;;;;;5028770;28;20672;-73
2023/04/12 12:18:40;;;;;;;20.60;11.35;;;13.40;95.30;;;;;;5036253;28;20184;-73
2023/04/12 12:21:08;;;;;;;19.48;10.68;;;13.30;95.40;;;;;;5035882;28;20037;-72
2023/04/12 12:23:34;;;;;;;19.35;10.77;;;13.30;95.10;;;;;;5031131;28;20501;-73
2023/04/12 12:26:05;;;;;;;18.38;11.18;;;13.30;94.70;;;;;;5036892;28;20059;-73
2023/04/12 12:28:38;;;;;;;16.50;11.23;;;13.40;95.00;;;;;;5026085;28;20043;-72
2023/04/12 12:31:09;;;;;;;21.73;10.90;;;13.50;95.00;;;;;;5032471;28;20057;-73
2023/04/12 12:33:41;;;;;;;17.75;11.18;;;13.50;94.90;;;;;;5028674;28;20090;-74